EPMO

Modlin Airport

Warsaw, Poland
METAR EPMO 271130Z 10009KT 060V120 CAVOK 25/15 Q1023
Observed Flight Rules
May-27 @ 11:30 UTC (37 minutes ago) Visual Flight Rules
Wind Visibility Clouds
100° at 9 knots 10,000+ meters
  • Clear skies
Temperatures Readings
Current 25°C / 77°F
Dewpoint 15°C / 59°F
Humidity 54%
Altimeter 30.21" Hg
Pressure 1023 hPa
Elevation 104
METAR EPMO 271130Z 10009KT 060V120 CAVOK 25/15 Q1023
Observed Flight Rules
May-27 @ 11:30 UTC
(37 minutes ago)
VFR
Wind Visibility
100° at 9 knots 10,000+ meters
Clouds
  • Clear skies
Temperature Dewpoint
25°C / 77°F 15°C / 59°F
Humidity Altimeter Pressure
54% 30.21" Hg 1023 hPa